Peshastin, WA

11:34 PM PDT on September 30, 2014 (GMT -0700)
Mountain Home Lodge Leavenworth, WA | Change Station
CLOSE
Current Station
Personal Weather Station
Location: Leavenworth, WA
Elevation: 2044 ft
Nearby Weather Stations

Elev 2044 ft 47.57 °N, 120.65 °W | Updated 3 minutes ago

Partly Cloudy
Partly Cloudy
48.9 °F
Feels Like 49 °F
N
2.0
Wind Variable Wind from East

Today
High -- | Low -- °F
--% Chance of Precip.
Yesterday
High -- | Low -- °F
Precip. -- in
7:00 AM 6:43 PM
Waxing Crescent, 44% visible
Pressure 30.04 in
Visibility 10.0 miles
Clouds Clear
Windchill 49 °F
Dew Point 36 °F
Humidity 62%
Rainfall 0.00 in
Snow Depth 0 in , 0 in , 0 in
UV 0 out of 12
Pollen 2.40 out of 12
Air Quality Not available.
Flu Activity Not available.
METAR KEAT 010555Z AUTO 30012KT 10SM CLR 13/02 A3005 RMK AO2 SLP172 T01280017 10194 20128 50008

More Conditions Fewer Conditions

Pressure 30.04 in
Visibility 10.0 miles
Clouds Clear
Windchill 49 °F
Dew Point 36 °F
Humidity 62%
Rainfall 0.00 in
Snow Depth 0 in , 0 in , 0 in
UV 0 out of 12
Pollen 2.40 out of 12
Air Quality Not available.
Flu Activity Not available.
METAR KEAT 010555Z AUTO 30012KT 10SM CLR 13/02 A3005 RMK AO2 SLP172 T01280017 10194 20128 50008

More Conditions Fewer Conditions

10-Day Weather Forecast

Almanac

Astronomy

Sep. 30, 2014 Rise Set
Actual Time 7:00 AM PDT 6:43 PM PDT
Civil Twilight 6:29 AM PDT 7:14 PM PDT
Nautical Twilight 5:53 AM PDT 7:49 PM PDT
Astronomical Twilight 5:17 AM PDT 8:26 PM PDT
Moon 1:32 PM PDT (9/30) 11:00 PM PDT (9/30)
Length of Visible Light 12h 44m
Length of Day
11h 43m
Tomorrow will be 3m 23s shorter.
Waxing Crescent, 44% of the Moon is Illuminated
Oct 1
Waxing Crescent
Oct 1
First Quarter
Oct 8
Full
Oct 15
Last Quarter
Oct 23
New

Community

WunderPhotos

Upload Photos

1,757,886 photos uploaded!

Nearby

Snow Depth

Station Depth Elevation
Bunchgrass Meadow 0 in 5000 ft
Skookum Creek 0 in 3920 ft
Alpine Meadows 0 in 3500 ft
Stevens Pass 0 in 4070 ft
Pope Ridge 0 in 3540 ft

Earthquake Activity

City Distance Mag. Time & Date
No recent earthquake activity has been reported nearby.
Minimum magnitude displayed is 2.5.

Coastal Water Temperatures

Place Temperature
No Stations Reporting

Nearby Weather Stations